Time;durP1;ratioP1;P1;durP2;ratioP2;P2;SDS_P1;SDS_P2;PMS_P1;PMS_P2;Temp;Humidity;BMP_temperature;BMP_pressure;BME280_temperature;BME280_humidity;BME280_pressure;Samples;Min_cycle;Max_cycle;Signal;HPM_P1;HPM_P2
2023/06/21 00:00:12;;;;;;;13.85;11.57;;;;;;;19.70;62.11;94879.59;4209388;28;20059;-57
2023/06/21 00:02:14;;;;;;;13.15;10.63;;;;;;;19.77;62.01;94875.09;4203232;28;20083;-58
2023/06/21 00:04:16;;;;;;;13.25;10.75;;;;;;;19.82;61.65;94878.72;4201858;28;20074;-58
2023/06/21 00:06:17;;;;;;;13.38;11.15;;;;;;;19.83;61.93;94868.91;4204423;28;20082;-59
2023/06/21 00:08:19;;;;;;;16.48;10.90;;;;;;;19.85;61.75;94874.81;4209019;28;20800;-57
2023/06/21 00:10:24;;;;;;;13.35;11.27;;;;;;;19.88;61.72;94868.28;4204791;28;20727;-58
2023/06/21 00:12:26;;;;;;;11.57;10.38;;;;;;;19.90;61.52;94879.53;4208514;28;20064;-57
2023/06/21 00:14:28;;;;;;;13.50;10.90;;;;;;;19.89;61.48;94873.38;4205155;28;20048;-59
2023/06/21 00:16:30;;;;;;;13.82;9.98;;;;;;;19.89;61.55;94876.03;4209837;28;20048;-60
2023/06/21 00:18:32;;;;;;;11.93;10.35;;;;;;;19.88;61.59;94877.06;4208541;28;20044;-60
2023/06/21 00:20:37;;;;;;;12.13;10.93;;;;;;;19.85;61.90;94885.47;4208788;28;20142;-59
2023/06/21 00:22:39;;;;;;;11.63;9.48;;;;;;;19.79;61.97;94881.00;4207423;28;20060;-57
2023/06/21 00:24:41;;;;;;;11.18;9.98;;;;;;;19.76;61.99;94874.25;4199174;28;20282;-57
2023/06/21 00:26:43;;;;;;;11.43;10.23;;;;;;;19.70;62.26;94866.31;4196501;28;20143;-59
2023/06/21 00:28:45;;;;;;;12.85;10.18;;;;;;;19.69;62.45;94867.31;4209088;28;20048;-58
2023/06/21 00:30:46;;;;;;;11.57;10.38;;;;;;;19.67;62.63;94867.53;4196278;28;20051;-58
2023/06/21 00:32:48;;;;;;;12.52;10.20;;;;;;;19.67;62.80;94866.72;4203796;28;20052;-57
2023/06/21 00:34:50;;;;;;;12.50;10.13;;;;;;;19.68;62.80;94865.69;4201560;28;20066;-58
2023/06/21 00:36:52;;;;;;;15.05;10.90;;;;;;;19.64;62.82;94857.34;4201745;28;20050;-58
2023/06/21 00:38:54;;;;;;;11.65;10.45;;;;;;;19.60;62.81;94859.59;4211057;28;20154;-58
2023/06/21 00:40:57;;;;;;;15.05;11.68;;;;;;;19.59;62.92;94868.56;4205391;28;20063;-58
2023/06/21 00:42:59;;;;;;;11.40;10.20;;;;;;;19.58;63.02;94871.47;4207099;28;20063;-58
2023/06/21 00:45:00;;;;;;;13.02;11.60;;;;;;;19.59;62.92;94868.56;4200696;28;20048;-57
2023/06/21 00:47:02;;;;;;;14.38;10.95;;;;;;;19.52;63.37;94873.09;4207895;28;20059;-59
2023/06/21 00:49:04;;;;;;;16.02;11.85;;;;;;;19.30;63.92;94866.44;4204812;28;20078;-58
2023/06/21 00:51:06;;;;;;;14.15;12.40;;;;;;;19.07;64.79;94875.69;4204762;28;20059;-57
2023/06/21 00:53:09;;;;;;;13.60;12.20;;;;;;;19.03;65.12;94866.50;4207092;28;20109;-57
2023/06/21 00:55:12;;;;;;;12.40;11.07;;;;;;;19.09;64.83;94872.81;4209748;28;20117;-61
2023/06/21 00:57:14;;;;;;;12.80;11.50;;;;;;;19.12;64.42;94872.41;4210608;28;20090;-58
2023/06/21 00:59:16;;;;;;;14.27;11.60;;;;;;;19.21;64.01;94876.47;4205999;28;20048;-59
2023/06/21 01:01:18;;;;;;;13.52;11.38;;;;;;;19.28;63.84;94877.28;4201840;28;20044;-58
2023/06/21 01:03:21;;;;;;;13.45;11.93;;;;;;;19.26;64.05;94878.50;4206857;28;20441;-58
2023/06/21 01:05:24;;;;;;;16.15;12.10;;;;;;;19.20;64.21;94875.63;4209643;28;20297;-58
2023/06/21 01:07:54;;;;;;;15.13;11.13;;;;;;;19.18;64.42;94867.06;4205938;28;20052;-57
2023/06/21 01:10:08;;;;;;;13.90;12.45;;;;;;;19.19;64.50;94867.91;4185803;28;20493;-56
2023/06/21 01:12:32;;;;;;;15.77;10.85;;;;;;;19.13;64.57;94869.53;4204557;28;20071;-53
2023/06/21 01:14:46;;;;;;;12.57;11.27;;;;;;;19.09;64.72;94876.28;4195574;28;20140;-58
2023/06/21 01:16:49;;;;;;;12.27;11.07;;;;;;;19.11;64.61;94866.28;4206010;28;20402;-56
2023/06/21 01:18:52;;;;;;;13.43;11.20;;;;;;;19.10;64.90;94869.97;4206916;28;20052;-58
2023/06/21 01:20:57;;;;;;;16.00;10.90;;;;;;;19.13;64.65;94868.72;4205024;28;20051;-57
2023/06/21 01:22:58;;;;;;;12.18;10.68;;;;;;;19.16;64.46;94863.81;4208589;28;20052;-57
2023/06/21 01:25:18;;;;;;;14.43;11.30;;;;;;;19.20;64.24;94862.38;4208112;28;20051;-58
2023/06/21 01:27:45;;;;;;;14.82;10.80;;;;;;;19.24;64.28;94857.47;4209030;28;20048;-58
2023/06/21 01:29:47;;;;;;;12.40;10.65;;;;;;;19.26;64.01;94863.38;4198761;28;20074;-56
2023/06/21 01:31:52;;;;;;;12.98;10.52;;;;;;;19.26;63.99;94865.22;4208541;28;20439;-59
2023/06/21 01:33:55;;;;;;;15.73;11.52;;;;;;;19.26;64.07;94874.00;4210485;28;20127;-58
2023/06/21 01:35:56;;;;;;;13.53;11.47;;;;;;;19.24;64.21;94871.56;4213145;28;20117;-58
2023/06/21 01:38:00;;;;;;;14.50;12.10;;;;;;;19.27;64.04;94872.97;4211802;28;20497;-58
2023/06/21 01:40:09;;;;;;;15.35;11.13;;;;;;;19.29;64.10;94872.78;4212820;28;20040;-57
2023/06/21 01:42:11;;;;;;;12.88;11.43;;;;;;;19.32;63.97;94870.53;4205914;28;20087;-59
2023/06/21 01:44:15;;;;;;;12.43;10.80;;;;;;;19.34;63.87;94876.44;4209742;28;20409;-59
2023/06/21 01:46:17;;;;;;;13.63;11.38;;;;;;;19.35;63.75;94878.06;4201980;28;20052;-59
2023/06/21 01:48:21;;;;;;;12.85;10.88;;;;;;;19.38;63.79;94882.97;4209759;28;20051;-56
2023/06/21 01:50:23;;;;;;;;;;;;;;;19.34;63.74;94883.59;4211783;28;20570;-58
2023/06/21 01:52:24;;;;;;;15.82;10.90;;;;;;;19.32;63.53;94877.69;4209269;28;19930;-58
2023/06/21 01:54:26;;;;;;;12.98;11.05;;;;;;;19.27;64.01;94882.78;4205062;28;20063;-59
2023/06/21 01:56:28;;;;;;;13.98;10.57;;;;;;;19.25;64.12;94885.63;4210288;28;20542;-58
2023/06/21 01:58:31;;;;;;;13.93;11.10;;;;;;;19.26;64.18;94889.13;4209586;28;20060;-58
2023/06/21 02:00:33;;;;;;;14.52;11.82;;;;;;;19.23;64.34;94885.06;4210974;28;20040;-59
2023/06/21 02:02:35;;;;;;;12.85;11.52;;;;;;;19.18;64.51;94882.19;4207242;28;20057;-58
2023/06/21 02:04:38;;;;;;;16.52;11.52;;;;;;;19.11;64.86;94882.22;4207680;28;20082;-57
2023/06/21 02:06:41;;;;;;;14.32;11.55;;;;;;;19.08;65.01;94877.31;4212073;28;20044;-57
2023/06/21 02:08:44;;;;;;;14.70;11.43;;;;;;;19.04;65.02;94876.09;4211769;28;20052;-56
2023/06/21 02:10:46;;;;;;;12.10;10.93;;;;;;;19.01;65.01;94871.19;4209767;28;20044;-58
2023/06/21 02:12:52;;;;;;;16.48;11.18;;;;;;;19.03;65.18;94875.25;4211581;28;20513;-59
2023/06/21 02:14:53;;;;;;;12.38;10.57;;;;;;;19.05;65.23;94874.25;4212577;28;20048;-59
2023/06/21 02:16:55;;;;;;;12.82;11.50;;;;;;;19.03;65.47;94871.81;4211599;28;20048;-57
2023/06/21 02:18:57;;;;;;;16.38;11.90;;;;;;;19.02;65.63;94880.81;4208424;28;20045;-58
2023/06/21 02:20:59;;;;;;;15.30;11.35;;;;;;;18.99;65.78;94878.53;4212693;28;20499;-58
2023/06/21 02:23:01;;;;;;;16.13;10.82;;;;;;;18.95;65.92;94877.31;4211203;28;20071;-59
2023/06/21 02:25:02;;;;;;;12.07;10.45;;;;;;;18.97;65.98;94884.09;4209833;28;20052;-55
2023/06/21 02:27:04;;;;;;;12.75;10.48;;;;;;;18.98;66.14;94879.59;4212233;28;20134;-58
2023/06/21 02:29:06;;;;;;;15.25;11.75;;;;;;;19.00;66.06;94888.16;4211695;28;20305;-58
2023/06/21 02:31:08;;;;;;;14.05;11.75;;;;;;;18.96;66.16;94889.59;4212020;28;20040;-58
2023/06/21 02:33:10;;;;;;;13.10;11.02;;;;;;;18.97;66.04;94892.03;4208826;28;20534;-58
2023/06/21 02:35:11;;;;;;;16.73;11.43;;;;;;;19.00;66.14;94888.97;4203243;28;20147;-60
2023/06/21 02:37:13;;;;;;;14.15;11.50;;;;;;;19.01;65.91;94890.63;4204077;28;20048;-60
2023/06/21 02:39:15;;;;;;;12.25;11.05;;;;;;;18.98;65.99;94887.53;4202446;28;20056;-58
2023/06/21 02:41:16;;;;;;;13.73;12.32;;;;;;;18.97;65.95;94901.81;4210654;28;20742;-57
2023/06/21 02:43:18;;;;;;;14.15;12.13;;;;;;;18.93;66.21;94901.44;4199383;28;20054;-56
2023/06/21 02:45:20;;;;;;;13.90;11.93;;;;;;;18.91;66.43;94908.78;4208878;28;20098;-55
2023/06/21 02:47:22;;;;;;;14.25;11.77;;;;;;;18.90;66.35;94909.81;4208437;28;20139;-57
2023/06/21 02:49:24;;;;;;;18.52;12.38;;;;;;;18.91;66.33;94911.44;4207011;28;20159;-54
2023/06/21 02:51:25;;;;;;;15.07;12.63;;;;;;;18.92;66.17;94914.91;4206098;28;20846;-53
2023/06/21 02:53:27;;;;;;;12.60;11.30;;;;;;;18.91;66.29;94913.28;4209613;28;20048;-55
2023/06/21 02:55:29;;;;;;;17.67;11.82;;;;;;;18.89;66.21;94918.00;4211311;28;20056;-60
2023/06/21 02:57:31;;;;;;;14.38;12.73;;;;;;;18.90;65.96;94919.59;4211908;28;20162;-58
2023/06/21 02:59:33;;;;;;;13.98;11.85;;;;;;;18.89;66.17;94920.66;4211434;28;20127;-58
2023/06/21 03:01:35;;;;;;;14.32;12.70;;;;;;;18.85;66.31;94924.72;4208371;28;20054;-58
2023/06/21 03:03:36;;;;;;;16.33;12.90;;;;;;;18.81;66.68;94922.47;4206596;28;20044;-59
2023/06/21 03:05:38;;;;;;;13.65;12.18;;;;;;;18.86;66.54;94921.03;4210574;28;20048;-57
2023/06/21 03:07:43;;;;;;;14.38;12.07;;;;;;;18.91;66.43;94926.56;4210165;28;20126;-60
2023/06/21 03:09:45;;;;;;;12.85;11.57;;;;;;;18.92;66.54;94922.88;4205299;28;20157;-57
2023/06/21 03:11:47;;;;;;;15.00;12.40;;;;;;;18.93;66.39;94928.00;4206540;28;20058;-57
2023/06/21 03:13:49;;;;;;;13.77;11.82;;;;;;;18.96;66.41;94924.09;4209869;28;20044;-57
2023/06/21 03:15:51;;;;;;;15.35;12.73;;;;;;;18.96;66.26;94930.22;4207881;28;20531;-58
2023/06/21 03:17:52;;;;;;;15.57;13.15;;;;;;;18.94;66.20;94936.75;4210978;28;20134;-57
2023/06/21 03:19:54;;;;;;;15.00;11.90;;;;;;;18.98;66.04;94930.03;4210562;28;20222;-56
2023/06/21 03:21:56;;;;;;;14.60;13.05;;;;;;;18.99;66.21;94935.13;4209361;28;20510;-59
2023/06/21 03:23:57;;;;;;;16.00;13.13;;;;;;;19.01;65.97;94935.75;4201915;28;20460;-59
2023/06/21 03:25:59;;;;;;;15.05;11.90;;;;;;;19.06;66.06;94934.28;4211552;28;20046;-57
2023/06/21 03:28:01;;;;;;;14.10;12.70;;;;;;;19.09;65.96;94931.25;4204897;28;20075;-57
2023/06/21 03:30:05;;;;;;;15.95;13.07;;;;;;;19.09;65.85;94932.06;4210710;28;20044;-58
2023/06/21 03:32:07;;;;;;;14.50;12.73;;;;;;;19.13;65.70;94935.13;4210300;28;20105;-54
2023/06/21 03:34:08;;;;;;;16.00;12.80;;;;;;;19.12;65.62;94929.00;4209687;28;20048;-57
2023/06/21 03:36:10;;;;;;;15.35;12.98;;;;;;;19.13;65.45;94938.59;4211765;28;20044;-58
2023/06/21 03:38:12;;;;;;;14.85;11.57;;;;;;;19.17;65.70;94937.16;4210720;28;20052;-58
2023/06/21 03:40:14;;;;;;;15.55;12.00;;;;;;;19.19;65.71;94928.97;4208612;28;20048;-56
2023/06/21 03:42:16;;;;;;;15.20;12.63;;;;;;;19.21;65.51;94935.72;4211694;28;20048;-57
2023/06/21 03:44:17;;;;;;;14.45;12.45;;;;;;;19.26;65.46;94926.31;4208180;28;20049;-57
2023/06/21 03:46:19;;;;;;;17.90;12.45;;;;;;;19.31;65.28;94932.63;4209432;28;20482;-55
2023/06/21 03:48:21;;;;;;;15.05;11.95;;;;;;;19.37;65.23;94933.66;4207983;28;20489;-56
2023/06/21 03:50:23;;;;;;;14.13;12.63;;;;;;;19.41;64.79;94933.00;4208561;28;20066;-53
2023/06/21 03:52:24;;;;;;;14.10;12.48;;;;;;;19.46;64.71;94937.69;4200083;28;20044;-54
2023/06/21 03:54:26;;;;;;;15.68;12.70;;;;;;;19.50;64.57;94933.59;4204598;28;20091;-59
2023/06/21 03:56:28;;;;;;;15.82;12.93;;;;;;;19.49;64.44;94936.47;4208313;28;20059;-56
2023/06/21 03:58:29;;;;;;;16.23;13.43;;;;;;;19.51;64.27;94939.72;4209077;28;20072;-58
2023/06/21 04:00:31;;;;;;;15.15;13.07;;;;;;;19.53;64.31;94932.38;4209802;28;20072;-57
2023/06/21 04:02:33;;;;;;;16.08;14.38;;;;;;;19.58;64.43;94935.22;4210300;28;20125;-59
2023/06/21 04:04:35;;;;;;;15.40;13.18;;;;;;;19.60;64.94;94944.63;4196533;28;20059;-57
2023/06/21 04:06:38;;;;;;;15.98;13.20;;;;;;;19.67;64.63;94943.78;4210811;28;20052;-56
2023/06/21 04:08:40;;;;;;;15.40;13.63;;;;;;;19.71;64.38;94951.16;4211039;28;20052;-58
2023/06/21 04:10:41;;;;;;;17.27;13.75;;;;;;;19.75;64.02;94948.91;4209348;28;20052;-61
2023/06/21 04:12:43;;;;;;;18.00;13.73;;;;;;;19.77;64.02;94950.31;4210602;28;20467;-59
2023/06/21 04:14:45;;;;;;;22.70;15.40;;;;;;;19.84;63.79;94951.09;4210293;28;20082;-58
2023/06/21 04:16:46;;;;;;;19.10;14.43;;;;;;;19.85;63.70;94951.91;4211386;28;20044;-60
2023/06/21 04:18:48;;;;;;;20.92;16.25;;;;;;;19.84;63.66;94955.63;4206804;28;20044;-59
2023/06/21 04:20:50;;;;;;;19.63;15.85;;;;;;;19.69;64.07;94963.81;4206536;28;20249;-61
2023/06/21 04:22:51;;;;;;;23.88;17.02;;;;;;;19.65;64.60;94958.09;4205408;28;20048;-61
2023/06/21 04:24:53;;;;;;;21.17;15.70;;;;;;;19.56;64.28;94959.34;4210469;28;20048;-59
2023/06/21 04:26:58;;;;;;;20.77;15.77;;;;;;;19.47;65.08;94959.75;4209084;28;20052;-60
2023/06/21 04:29:02;;;;;;;20.90;16.05;;;;;;;19.40;65.58;94960.63;4203601;28;20048;-59
2023/06/21 04:31:04;;;;;;;26.73;16.42;;;;;;;19.19;65.99;94966.97;4210892;28;20094;-58
2023/06/21 04:33:06;;;;;;;25.65;17.70;;;;;;;19.15;66.11;94965.75;4205122;28;20606;-56
2023/06/21 04:35:08;;;;;;;21.33;16.38;;;;;;;19.20;66.19;94965.94;4201952;28;20076;-57
2023/06/21 04:37:10;;;;;;;20.48;15.00;;;;;;;19.30;65.96;94962.06;4209525;28;20052;-55
2023/06/21 04:39:11;;;;;;;22.85;16.05;;;;;;;19.46;65.75;94963.47;4206271;28;20052;-59
2023/06/21 04:41:13;;;;;;;22.65;15.88;;;;;;;19.60;65.26;94952.59;4205733;28;20052;-58
2023/06/21 04:43:15;;;;;;;20.95;16.05;;;;;;;19.56;65.30;94964.66;4208349;28;20067;-57
2023/06/21 04:45:16;;;;;;;17.80;14.65;;;;;;;19.66;65.27;94958.94;4203698;28;20044;-57
2023/06/21 04:47:18;;;;;;;19.77;15.80;;;;;;;19.81;64.55;94966.66;4209823;28;20101;-58
2023/06/21 04:49:20;;;;;;;19.40;15.95;;;;;;;19.85;63.66;94962.56;4205250;28;20056;-60
2023/06/21 04:51:21;;;;;;;19.38;15.95;;;;;;;19.90;63.52;94968.06;4205547;28;20041;-59
2023/06/21 04:53:29;;;;;;;22.95;16.08;;;;;;;19.66;63.96;94966.91;4208363;28;20052;-57
2023/06/21 04:55:32;;;;;;;24.40;16.38;;;;;;;19.63;64.21;94959.31;4210968;28;20059;-56
2023/06/21 04:57:34;;;;;;;21.33;16.90;;;;;;;19.70;64.22;94964.66;4210266;28;20036;-59
2023/06/21 04:59:35;;;;;;;21.15;14.65;;;;;;;19.73;64.08;94964.25;4196964;28;20475;-58
2023/06/21 05:01:37;;;;;;;17.85;15.75;;;;;;;19.86;63.65;94961.53;4203734;28;20410;-60
2023/06/21 05:03:39;;;;;;;20.15;15.68;;;;;;;20.00;63.59;94965.78;4209569;28;20577;-61
2023/06/21 05:05:41;;;;;;;26.70;16.23;;;;;;;20.18;63.51;94966.94;4209789;28;20048;-56
2023/06/21 05:07:43;;;;;;;24.48;15.90;;;;;;;20.20;62.99;94964.88;4212616;28;20402;-57
2023/06/21 05:09:44;;;;;;;21.17;17.48;;;;;;;20.24;63.46;94963.41;4213882;28;20113;-57
2023/06/21 05:11:46;;;;;;;19.42;16.52;;;;;;;20.31;63.26;94956.22;4214752;28;20048;-58
2023/06/21 05:13:48;;;;;;;22.02;16.35;;;;;;;20.39;62.89;94955.13;4199097;28;20059;-58
2023/06/21 05:15:49;;;;;;;21.65;16.20;;;;;;;20.50;62.81;94957.16;4213265;28;20052;-59
2023/06/21 05:17:51;;;;;;;20.02;15.23;;;;;;;20.46;62.66;94961.25;4213643;28;20050;-59
2023/06/21 05:19:53;;;;;;;19.40;15.70;;;;;;;20.56;62.74;94960.78;4202119;28;20120;-58
2023/06/21 05:21:55;;;;;;;30.15;15.98;;;;;;;20.62;62.43;94962.59;4212292;28;20056;-57
2023/06/21 05:23:57;;;;;;;20.98;16.23;;;;;;;20.65;62.24;94962.19;4214481;28;20669;-60
2023/06/21 05:25:59;;;;;;;20.25;16.17;;;;;;;20.59;61.22;94963.88;4214200;28;20048;-58
2023/06/21 05:28:04;;;;;;;18.23;16.27;;;;;;;20.57;61.80;94970.41;4211213;28;20086;-59
2023/06/21 05:30:06;;;;;;;23.98;15.73;;;;;;;20.66;61.49;94963.81;4212506;28;20056;-60
2023/06/21 05:32:08;;;;;;;21.17;16.02;;;;;;;20.55;61.93;94961.81;4212403;28;20056;-58
2023/06/21 05:34:10;;;;;;;24.77;15.20;;;;;;;20.61;61.98;94961.81;4201545;28;20052;-56
2023/06/21 05:36:12;;;;;;;23.88;16.70;;;;;;;20.65;62.10;94956.88;4211411;28;20055;-59
2023/06/21 05:38:14;;;;;;;29.10;16.30;;;;;;;20.58;62.44;94959.56;4211221;28;20044;-58
2023/06/21 05:40:15;;;;;;;18.73;16.48;;;;;;;20.25;62.35;94957.06;4213338;28;20060;-57
2023/06/21 05:42:17;;;;;;;22.38;16.48;;;;;;;20.17;63.18;94959.97;4214045;28;20406;-56
2023/06/21 05:44:19;;;;;;;20.92;15.32;;;;;;;20.32;62.85;94954.38;4211592;28;20121;-59
2023/06/21 05:46:21;;;;;;;18.73;15.77;;;;;;;20.44;62.57;94964.13;4212514;28;20044;-57
2023/06/21 05:48:22;;;;;;;20.58;16.80;;;;;;;20.29;62.92;94958.28;4211480;28;20044;-57
2023/06/21 05:50:24;;;;;;;22.30;16.23;;;;;;;20.31;63.03;94955.41;4213406;28;20444;-55
2023/06/21 05:52:26;;;;;;;22.30;15.82;;;;;;;20.31;62.98;94960.72;4213110;28;20075;-60
2023/06/21 05:54:28;;;;;;;18.25;15.52;;;;;;;20.35;63.25;94949.44;4211988;28;20502;-58
2023/06/21 05:56:31;;;;;;;20.05;16.25;;;;;;;20.40;62.46;94948.81;4213098;28;20040;-60
2023/06/21 05:58:33;;;;;;;20.85;16.23;;;;;;;20.45;62.39;94952.44;4213584;28;20044;-60
2023/06/21 06:00:35;;;;;;;22.13;15.30;;;;;;;20.44;62.43;94953.47;4211311;28;20127;-58
2023/06/21 06:02:36;;;;;;;26.73;16.08;;;;;;;20.56;61.93;94950.13;4210383;28;20044;-61
2023/06/21 06:04:39;;;;;;;23.65;17.02;;;;;;;20.48;62.09;94953.88;4212007;28;20328;-60
2023/06/21 06:06:41;;;;;;;22.00;16.58;;;;;;;20.51;62.17;94952.63;4213672;28;20503;-59
2023/06/21 06:08:43;;;;;;;18.17;15.88;;;;;;;20.53;62.26;94955.91;4212895;28;20162;-57
2023/06/21 06:10:45;;;;;;;26.65;16.88;;;;;;;20.49;62.49;94949.38;4200187;28;20494;-59
2023/06/21 06:12:46;;;;;;;19.67;17.27;;;;;;;20.56;61.93;94944.81;4212509;28;20048;-58
2023/06/21 06:14:49;;;;;;;21.27;16.45;;;;;;;20.78;61.64;94938.13;4211652;28;20139;-57
2023/06/21 06:16:51;;;;;;;20.48;15.63;;;;;;;20.86;61.51;94943.19;4213410;28;20440;-57
2023/06/21 06:18:53;;;;;;;22.48;15.82;;;;;;;20.92;61.13;94940.69;4210104;28;20425;-57
2023/06/21 06:20:55;;;;;;;23.90;16.90;;;;;;;20.91;60.92;94939.03;4207138;28;20080;-59
2023/06/21 06:22:57;;;;;;;20.15;16.15;;;;;;;21.07;61.05;94935.84;4207656;28;20242;-58
2023/06/21 06:24:59;;;;;;;24.33;16.52;;;;;;;21.28;60.55;94937.31;4212976;28;20048;-59
2023/06/21 06:27:01;;;;;;;18.85;15.40;;;;;;;21.25;59.89;94946.56;4213700;28;20630;-59
2023/06/21 06:29:03;;;;;;;22.42;16.52;;;;;;;21.02;60.54;94943.69;4212709;28;20062;-57
2023/06/21 06:31:04;;;;;;;30.45;16.33;;;;;;;21.07;60.50;94944.66;4207509;28;20040;-59
2023/06/21 06:33:06;;;;;;;25.23;16.25;;;;;;;21.13;59.96;94940.31;4212411;28;20047;-58
2023/06/21 06:35:08;;;;;;;20.17;16.35;;;;;;;21.07;59.75;94934.00;4208222;28;20048;-61
2023/06/21 06:37:11;;;;;;;22.60;15.60;;;;;;;21.01;59.86;94934.06;4212730;28;20055;-60
2023/06/21 06:39:19;;;;;;;27.38;15.95;;;;;;;21.28;59.90;94935.44;4209590;28;20060;-58
2023/06/21 06:41:20;;;;;;;29.10;15.65;;;;;;;21.47;59.83;94935.50;4209184;28;20055;-61
2023/06/21 06:43:22;;;;;;;18.25;14.15;;;;;;;21.72;58.97;94935.41;4210004;28;20138;-61
2023/06/21 06:45:24;;;;;;;19.88;15.40;;;;;;;21.82;59.07;94934.91;4212001;28;20346;-60
2023/06/21 06:47:28;;;;;;;17.33;14.93;;;;;;;21.94;58.20;94937.63;4213217;28;20052;-62
2023/06/21 06:49:30;;;;;;;18.00;14.85;;;;;;;22.01;58.42;94933.84;4199607;28;20189;-60
2023/06/21 06:51:32;;;;;;;19.23;14.15;;;;;;;21.96;58.12;94936.41;4204492;28;20048;-62
2023/06/21 06:53:33;;;;;;;21.52;14.27;;;;;;;21.93;58.12;94928.81;4205741;28;20131;-61
2023/06/21 06:55:35;;;;;;;21.10;14.57;;;;;;;21.87;58.24;94937.72;4212136;28;20056;-60
2023/06/21 06:57:39;;;;;;;21.02;14.82;;;;;;;21.80;58.11;94937.78;4206663;28;20051;-59
2023/06/21 07:00:00;;;;;;;21.98;14.65;;;;;;;22.00;58.86;94929.53;4205239;28;20048;-58
2023/06/21 07:02:02;;;;;;;14.43;12.93;;;;;;;22.16;58.15;94932.66;4210312;28;20492;-61
2023/06/21 07:04:04;;;;;;;21.25;14.50;;;;;;;22.23;57.65;94936.88;4210693;28;20530;-61
2023/06/21 07:06:06;;;;;;;16.35;13.80;;;;;;;22.38;57.42;94933.81;4205533;28;20048;-62
2023/06/21 07:08:07;;;;;;;18.05;13.88;;;;;;;22.59;57.63;94929.00;4196995;28;20121;-60
2023/06/21 07:10:09;;;;;;;17.95;13.32;;;;;;;22.76;56.85;94940.66;4196013;28;20121;-58
2023/06/21 07:12:11;;;;;;;17.95;13.68;;;;;;;22.94;56.95;94926.41;4204668;28;20054;-59
2023/06/21 07:14:13;;;;;;;22.95;13.55;;;;;;;23.10;56.71;94920.41;4207690;28;20044;-59
2023/06/21 07:16:15;;;;;;;16.33;14.05;;;;;;;23.12;55.70;94928.16;4203769;28;20135;-58
2023/06/21 07:18:16;;;;;;;24.27;14.25;;;;;;;23.24;55.34;94931.66;4210590;28;20043;-55
2023/06/21 07:20:18;;;;;;;18.52;13.88;;;;;;;23.31;54.70;94913.66;4209767;28;20055;-58
2023/06/21 07:22:20;;;;;;;18.83;14.23;;;;;;;23.41;54.56;94914.94;4200011;28;20052;-59
2023/06/21 07:24:21;;;;;;;17.27;13.85;;;;;;;23.49;54.49;94915.41;4217800;28;20043;-59
2023/06/21 07:26:23;;;;;;;19.42;14.27;;;;;;;23.63;54.63;94910.59;4212499;28;20417;-58
2023/06/21 07:28:26;;;;;;;21.17;13.83;;;;;;;23.69;54.73;94919.56;4208759;28;20036;-58
2023/06/21 07:30:27;;;;;;;20.25;13.70;;;;;;;23.81;54.40;94915.03;4206973;28;20545;-59
2023/06/21 07:32:30;;;;;;;14.45;12.90;;;;;;;23.96;53.91;94916.38;4196642;28;20052;-59
2023/06/21 07:34:33;;;;;;;21.40;13.40;;;;;;;24.10;53.73;94913.19;4205348;28;20524;-57
2023/06/21 07:36:35;;;;;;;17.55;12.43;;;;;;;24.24;53.13;94916.41;4199086;28;20044;-58
2023/06/21 07:38:39;;;;;;;17.55;13.40;;;;;;;24.36;52.63;94911.00;4207908;28;20406;-57
2023/06/21 07:40:41;;;;;;;21.58;15.30;;;;;;;24.43;52.26;94910.84;4197204;28;20045;-57
2023/06/21 07:42:43;;;;;;;17.48;14.02;;;;;;;24.39;52.27;94907.00;4208619;28;20051;-58
2023/06/21 07:44:45;;;;;;;19.30;13.70;;;;;;;24.16;52.52;94908.75;4208772;28;20085;-56
2023/06/21 07:46:51;;;;;;;22.48;16.00;;;;;;;23.98;53.51;94915.06;4210383;28;20097;-59
2023/06/21 07:48:53;;;;;;;17.13;14.90;;;;;;;24.02;53.42;94904.72;4208385;28;20058;-58
2023/06/21 07:50:54;;;;;;;18.33;13.40;;;;;;;24.19;53.61;94910.13;4217114;28;20083;-60
2023/06/21 07:52:56;;;;;;;24.17;13.65;;;;;;;24.39;53.45;94902.47;4209407;28;20044;-58
2023/06/21 07:54:58;;;;;;;25.92;14.68;;;;;;;24.55;53.34;94908.16;4204063;28;20060;-60
2023/06/21 07:57:00;;;;;;;22.83;13.65;;;;;;;24.43;52.00;94908.16;4206502;28;20517;-61
2023/06/21 07:59:02;;;;;;;18.27;12.63;;;;;;;24.33;52.84;94906.94;4196346;28;20040;-57
2023/06/21 08:01:03;;;;;;;17.95;12.93;;;;;;;24.38;52.21;94903.53;4198829;28;20054;-60
2023/06/21 08:03:05;;;;;;;15.48;12.88;;;;;;;24.51;52.47;94902.44;4209945;28;20048;-60
2023/06/21 08:05:07;;;;;;;21.08;12.88;;;;;;;24.58;53.13;94905.78;4209138;28;20482;-58
2023/06/21 08:07:09;;;;;;;17.48;12.63;;;;;;;24.67;52.51;94908.88;4210955;28;20063;-60
2023/06/21 08:09:10;;;;;;;17.00;13.32;;;;;;;24.51;51.80;94908.59;4209478;28;20067;-58
2023/06/21 08:11:12;;;;;;;15.95;12.75;;;;;;;24.28;52.56;94904.13;4200530;28;20401;-60
2023/06/21 08:13:18;;;;;;;17.00;12.50;;;;;;;24.28;52.64;94901.47;4203339;28;20052;-61
2023/06/21 08:15:21;;;;;;;14.38;12.70;;;;;;;24.44;52.50;94896.41;4209034;28;20070;-61
2023/06/21 08:17:23;;;;;;;16.33;12.30;;;;;;;24.68;52.63;94895.25;4198733;28;20083;-62
2023/06/21 08:19:25;;;;;;;20.15;13.23;;;;;;;24.46;52.12;94902.34;4208673;28;20048;-59
2023/06/21 08:21:27;;;;;;;14.73;12.40;;;;;;;24.42;52.40;94899.31;4201443;28;20057;-61
2023/06/21 08:23:28;;;;;;;17.95;13.02;;;;;;;24.65;52.63;94905.63;4195234;28;20052;-61
2023/06/21 08:25:30;;;;;;;17.65;12.40;;;;;;;24.60;51.58;94901.00;4199474;28;20071;-61
2023/06/21 08:27:32;;;;;;;17.33;12.57;;;;;;;24.77;52.13;94900.22;4210578;28;20079;-59
2023/06/21 08:29:34;;;;;;;14.45;11.88;;;;;;;24.96;51.49;94903.47;4209775;28;20709;-62
2023/06/21 08:31:35;;;;;;;17.85;12.07;;;;;;;24.97;51.08;94905.88;4210301;28;20344;-62
2023/06/21 08:33:37;;;;;;;20.13;12.70;;;;;;;24.93;51.78;94896.72;4209533;28;20210;-62
2023/06/21 08:35:39;;;;;;;23.05;12.75;;;;;;;25.05;51.10;94902.00;4196692;28;20074;-63
2023/06/21 08:37:41;;;;;;;14.65;12.20;;;;;;;25.24;51.35;94906.06;4211476;28;20047;-63
2023/06/21 08:39:42;;;;;;;13.90;11.93;;;;;;;25.45;50.40;94906.38;4205420;28;20066;-61
2023/06/21 08:41:46;;;;;;;16.92;12.70;;;;;;;25.63;50.33;94899.91;4210431;28;20146;-62
2023/06/21 08:43:47;;;;;;;19.75;12.23;;;;;;;25.81;50.00;94893.41;4207283;28;20048;-62
2023/06/21 08:45:49;;;;;;;17.00;12.05;;;;;;;25.97;49.92;94891.75;4204503;28;20516;-61
2023/06/21 08:47:52;;;;;;;13.68;12.05;;;;;;;26.09;49.23;94895.94;4202786;28;20086;-61
2023/06/21 08:49:57;;;;;;;22.42;12.57;;;;;;;25.88;48.92;94889.50;4205795;28;20040;-62
2023/06/21 08:51:59;;;;;;;16.13;11.57;;;;;;;25.74;49.52;94891.72;4200544;28;20088;-61
2023/06/21 08:54:06;;;;;;;12.68;10.57;;;;;;;25.89;49.57;94885.75;4211515;28;20632;-58
2023/06/21 08:56:09;;;;;;;14.43;10.20;;;;;;;25.83;48.13;94885.91;4205915;28;20055;-57
2023/06/21 08:58:16;;;;;;;14.05;10.73;;;;;;;25.67;48.80;94896.47;4205350;28;20151;-60
2023/06/21 09:00:21;;;;;;;12.38;10.80;;;;;;;25.58;48.85;94883.75;4205000;28;20505;-61
2023/06/21 09:02:55;;;;;;;11.80;10.20;;;;;;;25.70;49.23;94881.72;4204792;28;20391;-61
2023/06/21 09:05:03;;;;;;;12.05;10.43;;;;;;;25.84;49.39;94888.34;4203241;28;20438;-57
2023/06/21 09:07:06;;;;;;;15.98;10.35;;;;;;;26.05;49.24;94878.72;4210088;28;20070;-56
2023/06/21 09:09:09;;;;;;;11.65;10.43;;;;;;;26.29;49.18;94886.47;4210847;28;20046;-58
2023/06/21 09:11:11;;;;;;;14.68;11.10;;;;;;;26.46;47.99;94879.13;4206365;28;20106;-56
2023/06/21 09:13:13;;;;;;;11.68;10.40;;;;;;;26.62;47.25;94885.47;4191561;28;20501;-57
2023/06/21 09:15:15;;;;;;;18.70;11.48;;;;;;;26.54;47.36;94880.53;4207603;28;20052;-59
2023/06/21 09:17:17;;;;;;;16.20;10.82;;;;;;;26.24;47.87;94875.66;4208958;28;20048;-58
2023/06/21 09:19:19;;;;;;;15.80;10.80;;;;;;;26.22;48.15;94880.47;4205235;28;20690;-61
2023/06/21 09:21:21;;;;;;;15.43;9.65;;;;;;;25.93;45.55;94875.34;4209993;28;20625;-59
2023/06/21 09:23:23;;;;;;;12.13;9.57;;;;;;;26.11;47.16;94880.38;4205322;28;20067;-58